Time;durP1;ratioP1;P1;durP2;ratioP2;P2;SDS_P1;SDS_P2;PMS_P1;PMS_P2;Temp;Humidity;BMP_temperature;BMP_pressure;BME280_temperature;BME280_humidity;BME280_pressure;Samples;Min_cycle;Max_cycle;Signal;HPM_P1;HPM_P2
2023/10/03 00:00:13;;;;;;;11.80;6.05;;;;;;;;;;5075321;28;20038;-81
2023/10/03 00:02:38;;;;;;;11.38;5.90;;;;;;;;;;5091896;28;20028;-83
2023/10/03 00:05:07;;;;;;;13.23;7.55;;;;;;;;;;5077712;28;20028;-83
2023/10/03 00:07:32;;;;;;;12.98;5.90;;;;;;;;;;5092410;28;20087;-83
2023/10/03 00:09:58;;;;;;;13.10;6.05;;;;;;;;;;5076783;28;20054;-83
2023/10/03 00:12:24;;;;;;;13.65;6.13;;;;;;;;;;5070317;28;20403;-83
2023/10/03 00:14:49;;;;;;;13.63;6.90;;;;;;;;;;5077346;28;20085;-83
2023/10/03 00:17:14;;;;;;;14.63;6.63;;;;;;;;;;5077916;28;20070;-83
2023/10/03 00:19:39;;;;;;;11.82;6.40;;;;;;;;;;5092041;28;20107;-81
2023/10/03 00:22:05;;;;;;;13.52;7.25;;;;;;;;;;5074575;28;20020;-83
2023/10/03 00:24:30;;;;;;;12.10;6.15;;;;;;;;;;5089205;28;20020;-83
2023/10/03 00:26:55;;;;;;;14.55;6.70;;;;;;;;;;5085830;28;20396;-83
2023/10/03 00:29:23;;;;;;;11.57;5.95;;;;;;;;;;5077632;28;20028;-82
2023/10/03 00:31:49;;;;;;;12.18;6.93;;;;;;;;;;5059054;28;20085;-83
2023/10/03 00:34:15;;;;;;;17.33;7.43;;;;;;;;;;5075556;28;20028;-83
2023/10/03 00:36:40;;;;;;;11.80;6.15;;;;;;;;;;5058301;28;20032;-82
2023/10/03 00:39:06;;;;;;;12.10;7.10;;;;;;;;;;5088705;28;20028;-83
2023/10/03 00:41:34;;;;;;;13.35;6.78;;;;;;;;;;5068126;28;20029;-83
2023/10/03 00:44:03;;;;;;;14.65;6.80;;;;;;;;;;5074926;28;20480;-83
2023/10/03 00:46:30;;;;;;;14.43;7.05;;;;;;;;;;5076886;28;20028;-83
2023/10/03 00:48:56;;;;;;;12.20;5.95;;;;;;;;;;5090222;28;20088;-83
2023/10/03 00:51:22;;;;;;;11.73;6.10;;;;;;;;;;5092868;28;20068;-83
2023/10/03 00:53:50;;;;;;;12.82;6.32;;;;;;;;;;5074189;28;20086;-83
2023/10/03 00:56:16;;;;;;;15.27;6.43;;;;;;;;;;5086179;28;20119;-82
2023/10/03 00:58:41;;;;;;;19.60;7.70;;;;;;;;;;5079553;28;20067;-83
2023/10/03 01:01:09;;;;;;;15.75;7.45;;;;;;;;;;5080542;28;20074;-83
2023/10/03 01:03:38;;;;;;;14.30;7.40;;;;;;;;;;5061056;28;20059;-81
2023/10/03 01:06:08;;;;;;;14.52;7.18;;;;;;;;;;5080713;28;20032;-83
2023/10/03 01:08:36;;;;;;;15.02;7.13;;;;;;;;;;5072393;28;20039;-83
2023/10/03 01:11:18;;;;;;;12.68;6.80;;;;;;;;;;5093239;28;20423;-83
2023/10/03 01:13:56;;;;;;;15.75;7.68;;;;;;;;;;5083967;28;20035;-83
2023/10/03 01:16:29;;;;;;;13.20;7.20;;;;;;;;;;5075014;28;20032;-83
2023/10/03 01:18:59;;;;;;;13.32;6.65;;;;;;;;;;5093850;28;20040;-83
2023/10/03 01:21:25;;;;;;;14.70;7.35;;;;;;;;;;5074617;28;20036;-82
2023/10/03 01:23:51;;;;;;;12.50;6.75;;;;;;;;;;5088370;28;20520;-83
2023/10/03 01:26:17;;;;;;;11.10;6.18;;;;;;;;;;5081471;28;20020;-83
2023/10/03 01:28:43;;;;;;;12.75;6.63;;;;;;;;;;5079694;28;20035;-83
2023/10/03 01:31:08;;;;;;;11.93;6.72;;;;;;;;;;5080996;28;20024;-83
2023/10/03 01:33:34;;;;;;;14.52;6.80;;;;;;;;;;5079353;28;20044;-83
2023/10/03 01:36:01;;;;;;;13.55;6.82;;;;;;;;;;5059030;28;20488;-83
2023/10/03 01:38:27;;;;;;;14.05;6.78;;;;;;;;;;5080859;28;20116;-83
2023/10/03 01:40:52;;;;;;;13.10;6.68;;;;;;;;;;5078967;28;20048;-83
2023/10/03 01:43:18;;;;;;;11.02;5.57;;;;;;;;;;5062648;28;20032;-83
2023/10/03 01:45:43;;;;;;;15.57;8.65;;;;;;;;;;5077121;28;20031;-83
2023/10/03 01:48:08;;;;;;;11.18;6.28;;;;;;;;;;5080175;28;20035;-83
2023/10/03 01:50:34;;;;;;;14.30;7.00;;;;;;;;;;5092966;28;20028;-82
2023/10/03 01:52:59;;;;;;;11.65;6.35;;;;;;;;;;5074745;28;20023;-83
2023/10/03 01:55:24;;;;;;;13.18;6.32;;;;;;;;;;5080781;28;20480;-83
2023/10/03 01:57:50;;;;;;;15.13;7.15;;;;;;;;;;5061554;28;20028;-83
2023/10/03 02:00:25;;;;;;;13.77;7.30;;;;;;;;;;5080275;28;20016;-83
2023/10/03 02:02:51;;;;;;;10.98;5.88;;;;;;;;;;5070326;28;20116;-81
2023/10/03 02:05:27;;;;;;;13.20;6.53;;;;;;;;;;5090323;28;20062;-83
2023/10/03 02:07:54;;;;;;;13.57;6.00;;;;;;;;;;5076309;28;20036;-83
2023/10/03 02:10:19;;;;;;;11.02;5.70;;;;;;;;;;5063335;28;20027;-82
2023/10/03 02:12:50;;;;;;;10.15;5.93;;;;;;;;;;5079394;28;20032;-83
2023/10/03 02:15:23;;;;;;;13.87;6.03;;;;;;;;;;5057558;28;20050;-83
2023/10/03 02:17:55;;;;;;;12.90;6.68;;;;;;;;;;5077382;28;20027;-83
2023/10/03 02:20:21;;;;;;;13.80;6.63;;;;;;;;;;5085448;28;20020;-83
2023/10/03 02:22:53;;;;;;;13.30;6.57;;;;;;;;;;5095228;28;20065;-83
2023/10/03 02:25:19;;;;;;;13.38;6.78;;;;;;;;;;5080306;28;20031;-83
2023/10/03 02:27:46;;;;;;;11.77;6.10;;;;;;;;;;5073391;28;20040;-83
2023/10/03 02:30:12;;;;;;;15.82;6.85;;;;;;;;;;5072544;28;20495;-83
2023/10/03 02:32:37;;;;;;;14.95;7.03;;;;;;;;;;5076443;28;20052;-82
2023/10/03 02:35:03;;;;;;;13.90;6.70;;;;;;;;;;5095982;28;20050;-83
2023/10/03 02:37:28;;;;;;;11.80;6.65;;;;;;;;;;5069792;28;20082;-83
2023/10/03 02:39:55;;;;;;;14.10;7.85;;;;;;;;;;5077616;28;20033;-83
2023/10/03 02:42:21;;;;;;;15.68;7.30;;;;;;;;;;5079300;28;20520;-83
2023/10/03 02:44:46;;;;;;;12.80;6.90;;;;;;;;;;5088556;28;20086;-82
2023/10/03 02:47:12;;;;;;;13.20;6.45;;;;;;;;;;5075506;28;20020;-82
2023/10/03 02:49:37;;;;;;;15.98;7.82;;;;;;;;;;5070337;28;20077;-83
2023/10/03 02:52:04;;;;;;;12.43;6.93;;;;;;;;;;5077613;28;20100;-82
2023/10/03 02:54:29;;;;;;;15.35;6.88;;;;;;;;;;5078934;28;20032;-83
2023/10/03 02:56:54;;;;;;;14.65;7.18;;;;;;;;;;5073884;28;20032;-83
2023/10/03 02:59:20;;;;;;;12.80;6.80;;;;;;;;;;5075240;28;20454;-83
2023/10/03 03:01:52;;;;;;;15.07;8.30;;;;;;;;;;5071119;28;20024;-83
2023/10/03 03:04:17;;;;;;;17.23;7.90;;;;;;;;;;5074086;28;20024;-83
2023/10/03 03:06:46;;;;;;;11.48;6.28;;;;;;;;;;5062075;28;20503;-83
2023/10/03 03:09:17;;;;;;;16.92;8.30;;;;;;;;;;5062095;28;20031;-83
2023/10/03 03:11:48;;;;;;;15.80;8.30;;;;;;;;;;5069655;28;20028;-82
2023/10/03 03:14:14;;;;;;;15.25;8.48;;;;;;;;;;5057307;28;20508;-83
2023/10/03 03:16:40;;;;;;;13.95;6.68;;;;;;;;;;5074009;28;20040;-83
2023/10/03 03:19:05;;;;;;;13.35;7.47;;;;;;;;;;5076439;28;20411;-83
2023/10/03 03:21:33;;;;;;;13.88;6.72;;;;;;;;;;5078772;28;20139;-83
2023/10/03 03:24:00;;;;;;;14.85;7.22;;;;;;;;;;5089565;28;20039;-82
2023/10/03 03:26:39;;;;;;;15.07;7.93;;;;;;;;;;5092734;28;20032;-83
2023/10/03 03:29:06;;;;;;;13.50;6.75;;;;;;;;;;5068712;28;20035;-83
2023/10/03 03:31:32;;;;;;;13.20;6.65;;;;;;;;;;5078403;28;20055;-83
2023/10/03 03:33:58;;;;;;;14.05;7.43;;;;;;;;;;5066276;28;20036;-83
2023/10/03 03:36:34;;;;;;;12.65;6.43;;;;;;;;;;5078785;28;20055;-83
2023/10/03 03:39:03;;;;;;;13.73;6.93;;;;;;;;;;5091578;28;20067;-83
2023/10/03 03:41:28;;;;;;;13.82;7.28;;;;;;;;;;5066800;28;20118;-83
2023/10/03 03:43:54;;;;;;;13.93;7.13;;;;;;;;;;5077983;28;20055;-83
2023/10/03 03:46:19;;;;;;;13.13;7.03;;;;;;;;;;5095431;28;20035;-83
2023/10/03 03:48:45;;;;;;;14.80;7.40;;;;;;;;;;5092291;28;20031;-83
2023/10/03 03:51:12;;;;;;;16.15;8.43;;;;;;;;;;5073068;28;20270;-83
2023/10/03 03:53:38;;;;;;;14.20;7.97;;;;;;;;;;5068190;28;20042;-83
2023/10/03 03:56:07;;;;;;;16.85;8.85;;;;;;;;;;5069001;28;20036;-83
2023/10/03 03:58:33;;;;;;;14.23;7.50;;;;;;;;;;5070847;28;20028;-82
2023/10/03 04:01:00;;;;;;;15.48;8.77;;;;;;;;;;5072399;28;20507;-82
2023/10/03 04:03:28;;;;;;;13.25;6.57;;;;;;;;;;5077633;28;20066;-83
2023/10/03 04:05:57;;;;;;;12.55;6.82;;;;;;;;;;5089080;28;20032;-83
2023/10/03 04:08:23;;;;;;;15.98;7.50;;;;;;;;;;5089192;28;20028;-83
2023/10/03 04:10:49;;;;;;;14.73;7.13;;;;;;;;;;5087667;28;20032;-83
2023/10/03 04:13:15;;;;;;;14.82;7.78;;;;;;;;;;5090981;28;20038;-82
2023/10/03 04:15:41;;;;;;;17.02;7.45;;;;;;;;;;5072282;28;20036;-83
2023/10/03 04:18:06;;;;;;;14.68;7.30;;;;;;;;;;5075479;28;20138;-82
2023/10/03 04:20:32;;;;;;;15.65;7.93;;;;;;;;;;5077102;28;20073;-83
2023/10/03 04:23:00;;;;;;;15.05;7.57;;;;;;;;;;5086758;28;20031;-83
2023/10/03 04:25:25;;;;;;;14.30;7.78;;;;;;;;;;5091206;28;20038;-83
2023/10/03 04:27:54;;;;;;;18.00;7.53;;;;;;;;;;5069114;28;20560;-82
2023/10/03 04:30:22;;;;;;;13.15;6.63;;;;;;;;;;5076051;28;20033;-83
2023/10/03 04:32:48;;;;;;;14.02;7.05;;;;;;;;;;5069332;28;20047;-83
2023/10/03 04:35:14;;;;;;;13.27;7.40;;;;;;;;;;5089555;28;20024;-82
2023/10/03 04:37:42;;;;;;;16.40;7.68;;;;;;;;;;5076239;28;20035;-81
2023/10/03 04:40:28;;;;;;;16.40;7.60;;;;;;;;;;5077094;28;20055;-83
2023/10/03 04:42:53;;;;;;;14.13;8.02;;;;;;;;;;5091066;28;20052;-82
2023/10/03 04:45:19;;;;;;;13.13;7.10;;;;;;;;;;5060587;28;20545;-83
2023/10/03 04:47:48;;;;;;;15.65;7.60;;;;;;;;;;5074796;28;20063;-83
2023/10/03 04:50:19;;;;;;;14.25;8.15;;;;;;;;;;5088148;28;20032;-83
2023/10/03 04:52:48;;;;;;;16.35;8.38;;;;;;;;;;5087829;28;20106;-83
2023/10/03 04:55:14;;;;;;;16.90;8.85;;;;;;;;;;5076865;28;20303;-83
2023/10/03 04:57:41;;;;;;;13.63;6.72;;;;;;;;;;5092655;28;20480;-82
2023/10/03 05:00:07;;;;;;;13.23;6.63;;;;;;;;;;5064525;28;20103;-83
2023/10/03 05:02:32;;;;;;;17.25;8.27;;;;;;;;;;5067835;28;20028;-83
2023/10/03 05:04:57;;;;;;;15.90;8.18;;;;;;;;;;5085912;28;20505;-82
2023/10/03 05:07:26;;;;;;;15.85;7.35;;;;;;;;;;5094848;28;20032;-83
2023/10/03 05:09:51;;;;;;;15.00;7.72;;;;;;;;;;5093062;28;20092;-83
2023/10/03 05:12:16;;;;;;;13.93;6.45;;;;;;;;;;5074708;28;20056;-83
2023/10/03 05:14:42;;;;;;;15.07;8.25;;;;;;;;;;5073421;28;20032;-82
2023/10/03 05:17:07;;;;;;;12.82;6.65;;;;;;;;;;5069127;28;20029;-83
2023/10/03 05:19:32;;;;;;;16.40;8.15;;;;;;;;;;5086335;28;20032;-83
2023/10/03 05:21:58;;;;;;;14.05;7.20;;;;;;;;;;5076309;28;20024;-81
2023/10/03 05:24:23;;;;;;;15.57;7.80;;;;;;;;;;5077345;28;20028;-83
2023/10/03 05:26:49;;;;;;;16.25;8.18;;;;;;;;;;5090248;28;20470;-83
2023/10/03 05:29:15;;;;;;;14.70;7.80;;;;;;;;;;5089829;28;20036;-82
2023/10/03 05:31:41;;;;;;;14.68;7.15;;;;;;;;;;5074562;28;20028;-83
2023/10/03 05:34:07;;;;;;;14.52;7.35;;;;;;;;;;5086081;28;20074;-83
2023/10/03 05:36:32;;;;;;;14.73;7.32;;;;;;;;;;5094770;28;20051;-82
2023/10/03 05:38:57;;;;;;;14.85;8.20;;;;;;;;;;5076520;28;20076;-83
2023/10/03 05:41:23;;;;;;;17.70;8.25;;;;;;;;;;5097118;28;20043;-83
2023/10/03 05:43:48;;;;;;;15.80;8.23;;;;;;;;;;5090939;28;20032;-83
2023/10/03 05:46:13;;;;;;;13.63;7.25;;;;;;;;;;5091749;28;20043;-83
2023/10/03 05:48:39;;;;;;;15.60;7.45;;;;;;;;;;5090853;28;20577;-83
2023/10/03 05:51:05;;;;;;;13.63;6.77;;;;;;;;;;5093190;28;20124;-81
2023/10/03 05:53:30;;;;;;;16.80;8.80;;;;;;;;;;5063876;28;20274;-83
2023/10/03 05:55:56;;;;;;;17.75;8.32;;;;;;;;;;5094451;28;20437;-83
2023/10/03 05:58:21;;;;;;;15.70;7.43;;;;;;;;;;5080397;28;20453;-83
2023/10/03 06:00:46;;;;;;;15.35;8.20;;;;;;;;;;5088096;28;20056;-83
2023/10/03 06:03:12;;;;;;;18.37;7.83;;;;;;;;;;5080110;28;20039;-83
2023/10/03 06:05:37;;;;;;;14.27;7.07;;;;;;;;;;5082059;28;20282;-83
2023/10/03 06:08:02;;;;;;;16.90;7.67;;;;;;;;;;5076655;28;20286;-81
2023/10/03 06:10:29;;;;;;;14.90;7.55;;;;;;;;;;5094635;28;20298;-82
2023/10/03 06:12:54;;;;;;;15.98;8.32;;;;;;;;;;5090916;28;20033;-83
2023/10/03 06:15:20;;;;;;;15.32;7.82;;;;;;;;;;5092338;28;20391;-83
2023/10/03 06:17:45;;;;;;;20.23;8.25;;;;;;;;;;5080281;28;20040;-83
2023/10/03 06:20:14;;;;;;;17.33;8.07;;;;;;;;;;5078459;28;20032;-81
2023/10/03 06:22:39;;;;;;;17.73;8.15;;;;;;;;;;5096479;28;20081;-83
2023/10/03 06:25:05;;;;;;;17.25;8.10;;;;;;;;;;5080466;28;20036;-83
2023/10/03 06:27:31;;;;;;;21.10;9.70;;;;;;;;;;5091324;28;20028;-83
2023/10/03 06:29:56;;;;;;;18.23;9.05;;;;;;;;;;5077280;28;20025;-82
2023/10/03 06:32:21;;;;;;;16.60;8.60;;;;;;;;;;5080499;28;20033;-83
2023/10/03 06:34:46;;;;;;;19.33;8.68;;;;;;;;;;5079067;28;20262;-81
2023/10/03 06:37:12;;;;;;;18.93;8.80;;;;;;;;;;5080331;28;20032;-83
2023/10/03 06:39:37;;;;;;;19.53;9.83;;;;;;;;;;5093043;28;20351;-83
2023/10/03 06:42:02;;;;;;;20.27;10.00;;;;;;;;;;5089061;28;20354;-81
2023/10/03 06:44:28;;;;;;;20.90;9.57;;;;;;;;;;5078684;28;20078;-82
2023/10/03 06:46:54;;;;;;;21.50;9.00;;;;;;;;;;5096794;28;20024;-83
2023/10/03 06:49:23;;;;;;;21.00;9.60;;;;;;;;;;5080030;28;20773;-83
2023/10/03 06:51:50;;;;;;;20.88;10.40;;;;;;;;;;5078280;28;20028;-83
2023/10/03 06:54:16;;;;;;;22.75;10.43;;;;;;;;;;5074213;28;20032;-83
2023/10/03 06:56:41;;;;;;;24.92;10.68;;;;;;;;;;5091406;28;20036;-83
2023/10/03 06:59:10;;;;;;;23.63;11.15;;;;;;;;;;5075066;28;20081;-83
2023/10/03 07:01:36;;;;;;;27.00;11.38;;;;;;;;;;5094407;28;20085;-83
2023/10/03 07:04:02;;;;;;;27.67;10.30;;;;;;;;;;5075841;28;20028;-82
2023/10/03 07:06:28;;;;;;;31.25;10.93;;;;;;;;;;5094319;28;20055;-83
2023/10/03 07:08:53;;;;;;;31.83;11.73;;;;;;;;;;5071343;28;20044;-82
2023/10/03 07:11:18;;;;;;;27.30;11.55;;;;;;;;;;5088457;28;20020;-83
2023/10/03 07:13:44;;;;;;;23.27;9.65;;;;;;;;;;5097126;28;20157;-83
2023/10/03 07:16:09;;;;;;;22.42;11.63;;;;;;;;;;5078314;28;20028;-82
2023/10/03 07:18:35;;;;;;;25.48;11.80;;;;;;;;;;5093278;28;20028;-83
2023/10/03 07:21:00;;;;;;;25.38;11.88;;;;;;;;;;5091248;28;20029;-82
2023/10/03 07:23:25;;;;;;;24.75;11.32;;;;;;;;;;5089689;28;20039;-83
2023/10/03 07:25:51;;;;;;;21.20;10.83;;;;;;;;;;5080988;28;20034;-83
2023/10/03 07:28:16;;;;;;;25.38;11.57;;;;;;;;;;5097518;28;20266;-83
2023/10/03 07:30:42;;;;;;;24.15;11.45;;;;;;;;;;5079518;28;20427;-84
2023/10/03 07:33:07;;;;;;;22.67;11.27;;;;;;;;;;5092241;28;20036;-83
2023/10/03 07:35:34;;;;;;;21.80;11.32;;;;;;;;;;5092219;28;20036;-83
2023/10/03 07:38:00;;;;;;;21.63;10.50;;;;;;;;;;5088439;28;20056;-83
2023/10/03 07:40:27;;;;;;;22.80;11.90;;;;;;;;;;5081423;28;20085;-84
2023/10/03 07:42:52;;;;;;;21.95;11.60;;;;;;;;;;5061724;28;20032;-83
2023/10/03 07:45:18;;;;;;;22.53;11.33;;;;;;;;;;5075546;28;20416;-82
2023/10/03 07:47:44;;;;;;;22.65;11.88;;;;;;;;;;5073760;28;20273;-83
2023/10/03 07:50:11;;;;;;;26.30;13.40;;;;;;;;;;5076389;28;20054;-82
2023/10/03 07:52:36;;;;;;;31.55;15.65;;;;;;;;;;5091518;28;20031;-83
2023/10/03 07:55:03;;;;;;;27.27;15.32;;;;;;;;;;5094194;28;20032;-82
2023/10/03 07:57:28;;;;;;;26.48;12.70;;;;;;;;;;5096556;28;20095;-83
2023/10/03 07:59:54;;;;;;;24.85;11.32;;;;;;;;;;5080339;28;20048;-82
2023/10/03 08:02:26;;;;;;;23.90;11.73;;;;;;;;;;5077480;28;20078;-83
2023/10/03 08:04:51;;;;;;;23.00;11.25;;;;;;;;;;5060272;28;20025;-84
2023/10/03 08:07:22;;;;;;;31.77;12.52;;;;;;;;;;5089068;28;20547;-83
2023/10/03 08:09:48;;;;;;;25.42;12.52;;;;;;;;;;5092922;28;20063;-84
2023/10/03 08:12:13;;;;;;;27.05;12.10;;;;;;;;;;5075859;28;20043;-83
2023/10/03 08:14:39;;;;;;;25.70;12.10;;;;;;;;;;5074434;28;20577;-84
2023/10/03 08:17:04;;;;;;;22.65;11.90;;;;;;;;;;5071825;28;20036;-83
2023/10/03 08:19:29;;;;;;;25.63;11.80;;;;;;;;;;5060800;28;20120;-84
2023/10/03 08:21:55;;;;;;;23.52;12.15;;;;;;;;;;5096385;28;20270;-83
2023/10/03 08:24:25;;;;;;;21.83;11.57;;;;;;;;;;5080128;28;20020;-83
2023/10/03 08:26:51;;;;;;;24.15;12.00;;;;;;;;;;5078425;28;20024;-84
2023/10/03 08:29:26;;;;;;;20.98;11.77;;;;;;;;;;5078868;28;20036;-82
2023/10/03 08:31:57;;;;;;;22.92;11.43;;;;;;;;;;5072982;28;20028;-83
2023/10/03 08:34:29;;;;;;;22.88;11.48;;;;;;;;;;5085670;28;20081;-83
2023/10/03 08:36:58;;;;;;;23.40;12.55;;;;;;;;;;5092525;28;20032;-83
2023/10/03 08:39:24;;;;;;;22.98;12.32;;;;;;;;;;5095561;28;20496;-83
2023/10/03 08:41:59;;;;;;;23.85;12.63;;;;;;;;;;5092063;28;20085;-84
2023/10/03 08:44:24;;;;;;;23.85;10.95;;;;;;;;;;5079344;28;20036;-84
2023/10/03 08:46:55;;;;;;;23.98;13.80;;;;;;;;;;5069880;28;20033;-84
2023/10/03 08:49:25;;;;;;;23.90;13.60;;;;;;;;;;5075209;28;20053;-83
2023/10/03 08:51:51;;;;;;;24.52;11.35;;;;;;;;;;5094531;28;20214;-83
2023/10/03 08:54:17;;;;;;;24.20;12.60;;;;;;;;;;5077936;28;20645;-82
2023/10/03 08:56:44;;;;;;;20.08;12.45;;;;;;;;;;5075014;28;20411;-83
2023/10/03 08:59:09;;;;;;;20.23;10.70;;;;;;;;;;5072404;28;20029;-83
2023/10/03 09:01:43;;;;;;;20.20;10.20;;;;;;;;;;5072473;28;20459;-83
2023/10/03 09:04:15;;;;;;;20.45;11.25;;;;;;;;;;5093148;28;20028;-83
2023/10/03 09:06:40;;;;;;;19.67;10.35;;;;;;;;;;5097386;28;20032;-83
2023/10/03 09:09:09;;;;;;;21.70;10.38;;;;;;;;;;5076237;28;20039;-84
2023/10/03 09:11:37;;;;;;;17.45;9.50;;;;;;;;;;5094922;28;20042;-84
2023/10/03 09:14:02;;;;;;;17.65;8.75;;;;;;;;;;5081872;28;20037;-84
2023/10/03 09:16:28;;;;;;;16.55;9.00;;;;;;;;;;5099202;28;20024;-84
2023/10/03 09:18:56;;;;;;;19.77;9.35;;;;;;;;;;5099654;28;20088;-83
2023/10/03 09:21:24;;;;;;;17.17;9.20;;;;;;;;;;5080916;28;20024;-83
2023/10/03 09:24:09;;;;;;;17.92;9.27;;;;;;;;;;5080372;28;20028;-84
2023/10/03 09:26:45;;;;;;;17.92;8.45;;;;;;;;;;5084371;28;20077;-84
2023/10/03 09:29:11;;;;;;;15.57;8.40;;;;;;;;;;5093828;28;20031;-84
2023/10/03 09:31:36;;;;;;;15.02;8.07;;;;;;;;;;5075736;28;20040;-84
2023/10/03 09:34:02;;;;;;;16.83;8.75;;;;;;;;;;5080245;28;20036;-84
2023/10/03 09:36:28;;;;;;;18.95;8.70;;;;;;;;;;5097949;28;20515;-83
2023/10/03 09:38:55;;;;;;;16.23;8.85;;;;;;;;;;5080912;28;20035;-84
2023/10/03 09:41:23;;;;;;;20.27;9.25;;;;;;;;;;5095024;28;20476;-84
2023/10/03 09:43:55;;;;;;;16.27;8.93;;;;;;;;;;5092371;28;20029;-84
2023/10/03 09:46:38;;;;;;;;;;;;;;;;;;5097774;28;20083;-84
2023/10/03 09:49:08;;;;;;;14.85;8.60;;;;;;;;;;5098690;28;19908;-83
2023/10/03 09:51:36;;;;;;;13.95;7.75;;;;;;;;;;5097022;28;20086;-84
2023/10/03 09:54:09;;;;;;;17.38;8.20;;;;;;;;;;5092970;28;20032;-83
2023/10/03 09:56:40;;;;;;;14.68;8.00;;;;;;;;;;5087250;28;20089;-84
2023/10/03 09:59:06;;;;;;;15.15;8.05;;;;;;;;;;5093628;28;20050;-84
2023/10/03 10:01:32;;;;;;;14.32;8.13;;;;;;;;;;5099487;28;20032;-81
2023/10/03 10:03:59;;;;;;;15.88;7.95;;;;;;;;;;5096571;28;20028;-79
2023/10/03 10:06:47;;;;;;;16.10;8.02;;;;;;;;;;5073359;28;20391;-81
2023/10/03 10:09:23;;;;;;;18.25;7.82;;;;;;;;;;5077615;28;20063;-82
2023/10/03 10:12:09;;;;;;;21.35;9.05;;;;;;;;;;5092743;28;20033;-82
2023/10/03 10:14:54;;;;;;;18.48;8.55;;;;;;;;;;5097832;28;20036;-81
2023/10/03 10:17:21;;;;;;;16.15;8.13;;;;;;;;;;5095986;28;20039;-81
2023/10/03 10:20:05;;;;;;;16.33;8.73;;;;;;;;;;5063401;28;20025;-81
2023/10/03 10:22:49;;;;;;;19.10;8.82;;;;;;;;;;5096523;28;20034;-82
2023/10/03 10:25:22;;;;;;;18.85;9.52;;;;;;;;;;5073314;28;20565;-81
2023/10/03 10:27:47;;;;;;;19.42;9.35;;;;;;;;;;5060612;28;20024;-81
2023/10/03 10:30:13;;;;;;;17.17;9.02;;;;;;;;;;5075812;28;20060;-81
2023/10/03 10:32:58;;;;;;;21.05;9.00;;;;;;;;;;5096298;28;20407;-81
2023/10/03 10:35:43;;;;;;;15.93;9.02;;;;;;;;;;5089271;28;20028;-80
2023/10/03 10:38:09;;;;;;;16.42;8.70;;;;;;;;;;5073008;28;20109;-81
2023/10/03 10:40:35;;;;;;;16.70;8.47;;;;;;;;;;5095343;28;20028;-80
2023/10/03 10:43:11;;;;;;;16.80;8.48;;;;;;;;;;5080057;28;20277;-82
2023/10/03 10:45:39;;;;;;;20.10;8.25;;;;;;;;;;5081239;28;20031;-81
2023/10/03 10:48:05;;;;;;;15.25;8.18;;;;;;;;;;5094163;28;20066;-81
2023/10/03 10:50:49;;;;;;;20.55;9.40;;;;;;;;;;5093288;28;20036;-81
2023/10/03 10:53:14;;;;;;;17.27;8.63;;;;;;;;;;5079225;28;20020;-80
2023/10/03 10:55:39;;;;;;;14.13;7.95;;;;;;;;;;5076839;28;20034;-82
2023/10/03 10:58:18;;;;;;;18.97;9.23;;;;;;;;;;5078937;28;20112;-81
2023/10/03 11:00:43;;;;;;;16.52;8.82;;;;;;;;;;5080843;28;20754;-81
2023/10/03 11:03:09;;;;;;;15.02;8.18;;;;;;;;;;5058868;28;20063;-81
2023/10/03 11:05:43;;;;;;;14.82;7.85;;;;;;;;;;5080942;28;20404;-81
2023/10/03 11:08:09;;;;;;;17.60;7.57;;;;;;;;;;5089217;28;20045;-81
2023/10/03 11:10:34;;;;;;;15.93;7.63;;;;;;;;;;5097814;28;20020;-80
2023/10/03 11:13:03;;;;;;;18.95;8.95;;;;;;;;;;5077709;28;20063;-82
2023/10/03 11:15:29;;;;;;;13.55;7.07;;;;;;;;;;5088713;28;20450;-80
2023/10/03 11:17:54;;;;;;;15.60;7.63;;;;;;;;;;5077175;28;20036;-82
2023/10/03 11:20:19;;;;;;;16.33;7.93;;;;;;;;;;5076483;28;20032;-81
2023/10/03 11:22:47;;;;;;;16.92;8.25;;;;;;;;;;5089978;28;20035;-81
2023/10/03 11:25:12;;;;;;;14.15;8.05;;;;;;;;;;5078533;28;20104;-81
2023/10/03 11:27:38;;;;;;;16.00;8.35;;;;;;;;;;5095117;28;20051;-81
2023/10/03 11:30:14;;;;;;;16.95;8.18;;;;;;;;;;5057459;28;20070;-82
2023/10/03 11:32:40;;;;;;;14.98;8.20;;;;;;;;;;5076466;28;20093;-81
2023/10/03 11:35:16;;;;;;;13.55;7.57;;;;;;;;;;5077082;28;20041;-81
2023/10/03 11:37:44;;;;;;;14.02;7.95;;;;;;;;;;5093925;28;20047;-80
2023/10/03 11:40:14;;;;;;;14.23;7.97;;;;;;;;;;5094681;28;20024;-81
2023/10/03 11:43:03;;;;;;;17.20;8.90;;;;;;;;;;5086310;28;20027;-82
2023/10/03 11:45:29;;;;;;;18.38;8.07;;;;;;;;;;5066783;28;20136;-80
2023/10/03 11:48:01;;;;;;;17.30;8.23;;;;;;;;;;5069854;28;20064;-81
2023/10/03 11:50:27;;;;;;;16.00;7.45;;;;;;;;;;5088409;28;20119;-81
2023/10/03 11:52:54;;;;;;;17.15;7.93;;;;;;;;;;5096396;28;20063;-81
2023/10/03 11:55:19;;;;;;;18.48;7.63;;;;;;;;;;5079256;28;20028;-81
2023/10/03 11:57:45;;;;;;;11.77;7.13;;;;;;;;;;5092711;28;20444;-82
2023/10/03 12:00:14;;;;;;;11.98;7.15;;;;;;;;;;5077384;28;20081;-82
2023/10/03 12:02:40;;;;;;;13.23;7.00;;;;;;;;;;5088988;28;20089;-81
2023/10/03 12:05:06;;;;;;;12.05;7.07;;;;;;;;;;5078683;28;20032;-81
2023/10/03 12:07:31;;;;;;;15.20;7.85;;;;;;;;;;5085488;28;20054;-82
2023/10/03 12:09:59;;;;;;;10.87;6.43;;;;;;;;;;5092512;28;20100;-81
2023/10/03 12:12:26;;;;;;;12.38;6.97;;;;;;;;;;5073167;28;20224;-81
2023/10/03 12:14:51;;;;;;;18.35;7.40;;;;;;;;;;5088292;28;20032;-81
2023/10/03 12:17:17;;;;;;;12.20;6.07;;;;;;;;;;5092227;28;20037;-82
2023/10/03 12:19:42;;;;;;;15.07;8.20;;;;;;;;;;5096669;28;20043;-81
2023/10/03 12:22:08;;;;;;;16.27;8.10;;;;;;;;;;5075756;28;20028;-80
2023/10/03 12:24:33;;;;;;;11.93;7.10;;;;;;;;;;5079415;28;20301;-81
2023/10/03 12:27:04;;;;;;;13.07;7.03;;;;;;;;;;5092453;28;20107;-79
2023/10/03 12:29:32;;;;;;;;;;;;;;;;;;5080186;28;20035;-80
2023/10/03 12:31:57;;;;;;;13.48;7.88;;;;;;;;;;5089985;28;19934;-81
2023/10/03 12:34:25;;;;;;;13.80;7.78;;;;;;;;;;5078129;28;20472;-81
2023/10/03 12:36:50;;;;;;;16.73;7.88;;;;;;;;;;5093610;28;20040;-81
2023/10/03 12:39:18;;;;;;;13.60;7.47;;;;;;;;;;5074411;28;20037;-81
2023/10/03 12:41:46;;;;;;;14.70;7.32;;;;;;;;;;5060967;28;20100;-81
2023/10/03 12:44:12;;;;;;;15.10;7.65;;;;;;;;;;5089110;28;20488;-80
2023/10/03 12:46:37;;;;;;;12.82;6.72;;;;;;;;;;5075103;28;20028;-81
2023/10/03 12:49:02;;;;;;;13.27;6.70;;;;;;;;;;5099070;28;20044;-81
2023/10/03 12:51:28;;;;;;;14.47;7.47;;;;;;;;;;5100615;28;20278;-80
2023/10/03 12:53:55;;;;;;;15.32;7.38;;;;;;;;;;5094640;28;20361;-82
2023/10/03 12:56:20;;;;;;;15.48;7.03;;;;;;;;;;5095600;28;20039;-81
2023/10/03 12:58:45;;;;;;;12.25;6.65;;;;;;;;;;5078720;28;20043;-82
2023/10/03 13:01:11;;;;;;;18.20;7.40;;;;;;;;;;5101384;28;20038;-81
2023/10/03 13:03:39;;;;;;;14.93;7.07;;;;;;;;;;5084141;28;20317;-81
2023/10/03 13:06:04;;;;;;;11.77;6.40;;;;;;;;;;5081583;28;20058;-82
2023/10/03 13:08:30;;;;;;;15.00;6.93;;;;;;;;;;5097294;28;20036;-82
2023/10/03 13:11:01;;;;;;;11.27;6.38;;;;;;;;;;5056937;28;20678;-81
2023/10/03 13:13:26;;;;;;;13.13;6.47;;;;;;;;;;5063769;28;20040;-80
2023/10/03 13:15:54;;;;;;;11.93;6.00;;;;;;;;;;5083073;28;20396;-81
2023/10/03 13:18:19;;;;;;;12.27;6.38;;;;;;;;;;5079675;28;20040;-81
2023/10/03 13:20:45;;;;;;;11.80;6.30;;;;;;;;;;5098839;28;20027;-81
2023/10/03 13:23:10;;;;;;;14.23;6.30;;;;;;;;;;5074979;28;20027;-81
2023/10/03 13:25:37;;;;;;;12.57;6.70;;;;;;;;;;5082376;28;20031;-81
2023/10/03 13:28:03;;;;;;;11.82;6.28;;;;;;;;;;5078272;28;20032;-81
2023/10/03 13:30:29;;;;;;;14.52;5.65;;;;;;;;;;5082858;28;20040;-80
2023/10/03 13:32:57;;;;;;;15.18;5.90;;;;;;;;;;5078978;28;20125;-81
2023/10/03 13:35:22;;;;;;;11.73;5.05;;;;;;;;;;5095437;28;20487;-82
2023/10/03 13:37:48;;;;;;;10.37;5.60;;;;;;;;;;5074716;28;20048;-81
2023/10/03 13:40:13;;;;;;;13.50;6.75;;;;;;;;;;5081504;28;20025;-81
2023/10/03 13:42:38;;;;;;;32.27;7.67;;;;;;;;;;5099596;28;20544;-81
2023/10/03 13:45:05;;;;;;;11.43;5.63;;;;;;;;;;5081337;28;20020;-82
2023/10/03 13:47:31;;;;;;;16.70;5.88;;;;;;;;;;5083409;28;20040;-81
2023/10/03 13:49:56;;;;;;;15.35;5.65;;;;;;;;;;5094384;28;20044;-80
2023/10/03 13:52:21;;;;;;;14.00;5.60;;;;;;;;;;5095004;28;20027;-81
2023/10/03 13:54:46;;;;;;;12.40;5.60;;;;;;;;;;5080665;28;20043;-81
2023/10/03 13:57:12;;;;;;;19.35;6.05;;;;;;;;;;5097779;28;20545;-81
2023/10/03 13:59:38;;;;;;;9.40;5.23;;;;;;;;;;5098622;28;20028;-81
2023/10/03 14:02:04;;;;;;;20.02;6.25;;;;;;;;;;5097311;28;20323;-79
2023/10/03 14:04:29;;;;;;;10.73;5.47;;;;;;;;;;5095275;28;20087;-81
2023/10/03 14:06:55;;;;;;;12.38;6.07;;;;;;;;;;5072427;28;20116;-80
2023/10/03 14:09:26;;;;;;;22.58;6.80;;;;;;;;;;5083011;28;20040;-81
2023/10/03 14:11:52;;;;;;;12.48;5.45;;;;;;;;;;5099670;28;20083;-80
2023/10/03 14:14:17;;;;;;;14.32;5.38;;;;;;;;;;5079580;28;20032;-80
2023/10/03 14:16:42;;;;;;;17.67;6.18;;;;;;;;;;5083313;28;20477;-81
2023/10/03 14:19:08;;;;;;;12.00;5.20;;;;;;;;;;5075631;28;20043;-81
2023/10/03 14:21:33;;;;;;;11.90;5.53;;;;;;;;;;5074674;28;20024;-80
2023/10/03 14:23:58;;;;;;;18.60;6.77;;;;;;;;;;5093707;28;20262;-82
2023/10/03 14:26:24;;;;;;;17.90;5.67;;;;;;;;;;5097584;28;20651;-81
2023/10/03 14:28:49;;;;;;;13.15;5.53;;;;;;;;;;5080060;28;20043;-81